PHENX84 YCBG-YCBG
Flight info
| Callsign | PHENX84 |
|---|---|
| Flight time | 0h 19m |
| Altitude | 3000 |
| Route | DCT |
| Aircraft | C172/L-SFG/C |
Departure
| Time | 2026-05-06 12:31 |
|---|---|
| Airport | Cambridge Aerodrome (YCBG) |
Arrival
| Time | 2026-05-06 12:50 |
|---|---|
| Airport | Cambridge Aerodrome (YCBG) |
| Time | Latitude | Longitude | Altitude | Speed | Heading |
|---|---|---|---|---|---|
| 2026-05-06 12:26 | -42.82910 | 147.47663 | 47 ft | 0 kts | 183° |
| 2026-05-06 12:27 | -42.82915 | 147.47663 | 47 ft | 4 kts | 181° |
| 2026-05-06 12:27 | -42.82935 | 147.47719 | 45 ft | 12 kts | 28° |
| 2026-05-06 12:27 | -42.82917 | 147.47785 | 44 ft | 0 kts | 106° |
| 2026-05-06 12:28 | -42.82915 | 147.47824 | 46 ft | 5 kts | 18° |
| 2026-05-06 12:28 | -42.82898 | 147.47813 | 45 ft | 0 kts | 332° |
| 2026-05-06 12:28 | -42.82881 | 147.47802 | 45 ft | 18 kts | 336° |
| 2026-05-06 12:29 | -42.82595 | 147.47619 | 41 ft | 71 kts | 334° |
| 2026-05-06 12:29 | -42.82087 | 147.47273 | 144 ft | 90 kts | 336° |
| 2026-05-06 12:29 | -42.81466 | 147.47227 | 369 ft | 91 kts | 31° |
| 2026-05-06 12:29 | -42.81263 | 147.47972 | 603 ft | 95 kts | 101° |
| 2026-05-06 12:30 | -42.81612 | 147.48893 | 568 ft | 116 kts | 126° |
| 2026-05-06 12:30 | -42.82115 | 147.49741 | 601 ft | 115 kts | 132° |
| 2026-05-06 12:30 | -42.82686 | 147.50560 | 535 ft | 120 kts | 134° |
| 2026-05-06 12:30 | -42.83388 | 147.51087 | 574 ft | 119 kts | 168° |
| 2026-05-06 12:31 | -42.84213 | 147.51103 | 629 ft | 114 kts | 189° |
| 2026-05-06 12:31 | -42.84941 | 147.51065 | 848 ft | 102 kts | 178° |
| 2026-05-06 12:31 | -42.85681 | 147.51112 | 854 ft | 110 kts | 178° |
| 2026-05-06 12:31 | -42.86463 | 147.51178 | 859 ft | 114 kts | 179° |
| 2026-05-06 12:32 | -42.87260 | 147.51188 | 868 ft | 114 kts | 188° |
| 2026-05-06 12:32 | -42.88050 | 147.51061 | 867 ft | 114 kts | 189° |
| 2026-05-06 12:32 | -42.88839 | 147.50926 | 857 ft | 115 kts | 189° |
| 2026-05-06 12:32 | -42.89637 | 147.50781 | 855 ft | 116 kts | 192° |
| 2026-05-06 12:33 | -42.90200 | 147.50095 | 860 ft | 113 kts | 252° |
| 2026-05-06 12:33 | -42.90560 | 147.49150 | 860 ft | 113 kts | 246° |
| 2026-05-06 12:33 | -42.90797 | 147.48134 | 864 ft | 112 kts | 260° |
| 2026-05-06 12:33 | -42.90809 | 147.47077 | 857 ft | 111 kts | 276° |
| 2026-05-06 12:34 | -42.90712 | 147.46039 | 908 ft | 108 kts | 277° |
| 2026-05-06 12:34 | -42.90555 | 147.45053 | 991 ft | 107 kts | 288° |
| 2026-05-06 12:34 | -42.90333 | 147.44073 | 998 ft | 109 kts | 287° |
| 2026-05-06 12:34 | -42.90102 | 147.43084 | 996 ft | 110 kts | 291° |
| 2026-05-06 12:35 | -42.89744 | 147.42163 | 1000 ft | 109 kts | 301° |
| 2026-05-06 12:35 | -42.89271 | 147.41324 | 998 ft | 114 kts | 306° |
| 2026-05-06 12:35 | -42.88776 | 147.40480 | 1003 ft | 114 kts | 306° |
| 2026-05-06 12:35 | -42.88291 | 147.39630 | 989 ft | 114 kts | 307° |
| 2026-05-06 12:36 | -42.87875 | 147.38713 | 987 ft | 114 kts | 298° |
| 2026-05-06 12:36 | -42.87576 | 147.37714 | 987 ft | 114 kts | 283° |
| 2026-05-06 12:36 | -42.87572 | 147.36635 | 988 ft | 115 kts | 261° |
| 2026-05-06 12:36 | -42.87776 | 147.35580 | 986 ft | 116 kts | 252° |
| 2026-05-06 12:37 | -42.88037 | 147.34544 | 987 ft | 116 kts | 252° |
| 2026-05-06 12:37 | -42.88291 | 147.33499 | 988 ft | 116 kts | 254° |
| 2026-05-06 12:37 | -42.88150 | 147.32469 | 994 ft | 117 kts | 311° |
| 2026-05-06 12:37 | -42.87535 | 147.31755 | 1002 ft | 116 kts | 326° |
| 2026-05-06 12:38 | -42.86848 | 147.31172 | 1007 ft | 116 kts | 327° |
| 2026-05-06 12:38 | -42.86164 | 147.30596 | 1005 ft | 115 kts | 327° |
| 2026-05-06 12:38 | -42.85481 | 147.30028 | 1000 ft | 115 kts | 328° |
| 2026-05-06 12:38 | -42.84805 | 147.29456 | 1071 ft | 110 kts | 327° |
| 2026-05-06 12:39 | -42.84159 | 147.28890 | 1054 ft | 113 kts | 328° |
| 2026-05-06 12:39 | -42.83446 | 147.28418 | 960 ft | 114 kts | 342° |
| 2026-05-06 12:39 | -42.82649 | 147.28479 | 699 ft | 122 kts | 25° |
| 2026-05-06 12:39 | -42.82140 | 147.29326 | 556 ft | 117 kts | 78° |
| 2026-05-06 12:40 | -42.82108 | 147.30420 | 480 ft | 113 kts | 84° |
| 2026-05-06 12:40 | -42.81891 | 147.31438 | 415 ft | 113 kts | 67° |
| 2026-05-06 12:40 | -42.81558 | 147.32388 | 438 ft | 108 kts | 60° |
| 2026-05-06 12:40 | -42.81284 | 147.33273 | 564 ft | 98 kts | 91° |
| 2026-05-06 12:41 | -42.81687 | 147.34063 | 507 ft | 108 kts | 150° |
| 2026-05-06 12:41 | -42.82388 | 147.34380 | 546 ft | 108 kts | 166° |
| 2026-05-06 12:41 | -42.83102 | 147.34697 | 590 ft | 104 kts | 161° |
| 2026-05-06 12:41 | -42.83793 | 147.35007 | 593 ft | 108 kts | 161° |
| 2026-05-06 12:42 | -42.84465 | 147.35519 | 541 ft | 111 kts | 141° |
| 2026-05-06 12:42 | -42.85175 | 147.35806 | 504 ft | 113 kts | 189° |
| 2026-05-06 12:42 | -42.85920 | 147.35595 | 621 ft | 101 kts | 184° |
| 2026-05-06 12:42 | -42.86472 | 147.36088 | 605 ft | 107 kts | 110° |
| 2026-05-06 12:43 | -42.86271 | 147.37002 | 518 ft | 114 kts | 40° |
| 2026-05-06 12:43 | -42.85702 | 147.37698 | 557 ft | 109 kts | 55° |
| 2026-05-06 12:43 | -42.85513 | 147.38690 | 544 ft | 109 kts | 91° |
| 2026-05-06 12:43 | -42.85580 | 147.39708 | 553 ft | 110 kts | 97° |
| 2026-05-06 12:44 | -42.85617 | 147.40712 | 650 ft | 99 kts | 90° |
| 2026-05-06 12:44 | -42.85554 | 147.41607 | 780 ft | 91 kts | 68° |
| 2026-05-06 12:44 | -42.85051 | 147.41977 | 892 ft | 86 kts | 4° |
| 2026-05-06 12:44 | -42.84425 | 147.42237 | 793 ft | 108 kts | 32° |
| 2026-05-06 12:45 | -42.83990 | 147.43041 | 776 ft | 109 kts | 80° |
| 2026-05-06 12:45 | -42.83731 | 147.44011 | 731 ft | 112 kts | 64° |
| 2026-05-06 12:45 | -42.83127 | 147.45940 | 650 ft | 108 kts | 94° |
| 2026-05-06 12:46 | -42.83305 | 147.46966 | 546 ft | 113 kts | 105° |
| 2026-05-06 12:46 | -42.83495 | 147.47982 | 534 ft | 110 kts | 104° |
| 2026-05-06 12:46 | -42.83746 | 147.48956 | 560 ft | 101 kts | 114° |
| 2026-05-06 12:46 | -42.83931 | 147.49824 | 643 ft | 89 kts | 86° |
| 2026-05-06 12:47 | -42.83766 | 147.50326 | 662 ft | 88 kts | 34° |
| 2026-05-06 12:47 | -42.83296 | 147.49971 | 557 ft | 98 kts | 274° |
| 2026-05-06 12:47 | -42.83172 | 147.49078 | 371 ft | 90 kts | 302° |
| 2026-05-06 12:47 | -42.82964 | 147.48319 | 66 ft | 83 kts | 282° |
| 2026-05-06 12:48 | -42.82835 | 147.47669 | 49 ft | 71 kts | 285° |
| 2026-05-06 12:48 | -42.82724 | 147.46948 | 206 ft | 81 kts | 283° |
| 2026-05-06 12:48 | -42.82803 | 147.46174 | 405 ft | 86 kts | 229° |
| 2026-05-06 12:48 | -42.83381 | 147.46013 | 584 ft | 93 kts | 148° |
| 2026-05-06 12:49 | -42.83782 | 147.46799 | 643 ft | 111 kts | 113° |
| 2026-05-06 12:49 | -42.84130 | 147.47724 | 839 ft | 110 kts | 117° |
| 2026-05-06 12:49 | -42.84343 | 147.48644 | 870 ft | 91 kts | 97° |
| 2026-05-06 12:49 | -42.84190 | 147.49540 | 619 ft | 102 kts | 57° |
| 2026-05-06 12:50 | -42.83598 | 147.49908 | 499 ft | 96 kts | 344° |
| 2026-05-06 12:50 | -42.83210 | 147.49231 | 290 ft | 92 kts | 293° |
| 2026-05-06 12:50 | -42.82991 | 147.48478 | 69 ft | 80 kts | 284° |
| 2026-05-06 12:50 | -42.82870 | 147.47882 | 46 ft | 43 kts | 284° |
| 2026-05-06 12:51 | -42.82830 | 147.47667 | 45 ft | 9 kts | 283° |
| 2026-05-06 12:51 | -42.82816 | 147.47601 | 45 ft | 1 kts | 274° |
| 2026-05-06 12:51 | -42.82830 | 147.47590 | 45 ft | 4 kts | 177° |
| 2026-05-06 12:51 | -42.82854 | 147.47585 | 45 ft | 2 kts | 194° |
| 2026-05-06 12:52 | -42.82879 | 147.47589 | 46 ft | 8 kts | 111° |
| 2026-05-06 12:52 | -42.82899 | 147.47679 | 45 ft | 10 kts | 106° |
| 2026-05-06 12:52 | -42.82942 | 147.47704 | 46 ft | 4 kts | 212° |
| 2026-05-06 12:52 | -42.82947 | 147.47695 | 46 ft | 0 kts | 260° |
| 2026-05-06 12:53 | -42.82947 | 147.47683 | 47 ft | 1 kts | 275° |
| 2026-05-06 12:53 | -42.82939 | 147.47671 | 47 ft | 4 kts | 330° |
| 2026-05-06 12:53 | -42.82931 | 147.47666 | 47 ft | 0 kts | 340° |